sensor_id;sensor_type;location;lat;lon;timestamp;P1;durP1;ratioP1;P2;durP2;ratioP2
74753;SDS011;63271;53.340;-6.260;2022-12-10T07:03:15;18.77;;;6.45;;
74753;SDS011;63271;53.340;-6.260;2022-12-10T07:05:42;14.30;;;6.55;;
74753;SDS011;63271;53.340;-6.260;2022-12-10T07:08:08;15.85;;;6.82;;
74753;SDS011;63271;53.340;-6.260;2022-12-10T07:10:33;13.02;;;6.50;;
74753;SDS011;63271;53.340;-6.260;2022-12-10T07:13:01;15.48;;;6.75;;
74753;SDS011;63271;53.340;-6.260;2022-12-10T07:15:26;17.40;;;6.80;;
74753;SDS011;63271;53.340;-6.260;2022-12-10T07:17:53;12.90;;;5.82;;
74753;SDS011;63271;53.340;-6.260;2022-12-10T07:20:18;15.05;;;6.68;;
74753;SDS011;63271;53.340;-6.260;2022-12-10T07:22:44;12.38;;;5.95;;
74753;SDS011;63271;53.340;-6.260;2022-12-10T07:25:09;14.90;;;6.93;;
74753;SDS011;63271;53.340;-6.260;2022-12-10T07:27:37;16.75;;;5.72;;
74753;SDS011;63271;53.340;-6.260;2022-12-10T07:30:06;15.18;;;6.03;;
74753;SDS011;63271;53.340;-6.260;2022-12-10T07:32:32;18.80;;;5.97;;
74753;SDS011;63271;53.340;-6.260;2022-12-10T07:34:57;15.35;;;6.57;;
74753;SDS011;63271;53.340;-6.260;2022-12-10T07:37:25;16.40;;;6.32;;
74753;SDS011;63271;53.340;-6.260;2022-12-10T07:39:50;14.13;;;5.95;;
74753;SDS011;63271;53.340;-6.260;2022-12-10T07:42:18;13.60;;;5.97;;
74753;SDS011;63271;53.340;-6.260;2022-12-10T07:44:43;16.60;;;6.15;;
74753;SDS011;63271;53.340;-6.260;2022-12-10T07:47:11;14.35;;;6.75;;
74753;SDS011;63271;53.340;-6.260;2022-12-10T07:49:36;17.88;;;6.15;;
74753;SDS011;63271;53.340;-6.260;2022-12-10T07:52:02;15.43;;;7.13;;
74753;SDS011;63271;53.340;-6.260;2022-12-10T07:54:27;12.57;;;6.70;;
74753;SDS011;63271;53.340;-6.260;2022-12-10T07:56:53;13.55;;;6.68;;
74753;SDS011;63271;53.340;-6.260;2022-12-10T07:59:21;15.15;;;6.65;;
74753;SDS011;63271;53.340;-6.260;2022-12-10T08:01:46;19.40;;;6.60;;
74753;SDS011;63271;53.340;-6.260;2022-12-10T08:04:14;12.70;;;5.68;;
74753;SDS011;63271;53.340;-6.260;2022-12-10T08:06:42;16.13;;;5.50;;
74753;SDS011;63271;53.340;-6.260;2022-12-10T08:09:08;15.23;;;6.30;;
74753;SDS011;63271;53.340;-6.260;2022-12-10T08:11:37;14.23;;;5.72;;
74753;SDS011;63271;53.340;-6.260;2022-12-10T08:14:04;12.48;;;6.00;;
74753;SDS011;63271;53.340;-6.260;2022-12-10T08:16:30;12.05;;;4.85;;
74753;SDS011;63271;53.340;-6.260;2022-12-10T08:18:59;13.73;;;5.18;;
74753;SDS011;63271;53.340;-6.260;2022-12-10T08:21:27;9.63;;;4.63;;
74753;SDS011;63271;53.340;-6.260;2022-12-10T08:23:54;15.15;;;5.93;;
74753;SDS011;63271;53.340;-6.260;2022-12-10T08:26:21;14.95;;;5.60;;
74753;SDS011;63271;53.340;-6.260;2022-12-10T08:28:48;14.15;;;5.70;;
74753;SDS011;63271;53.340;-6.260;2022-12-10T08:31:15;14.70;;;5.80;;
74753;SDS011;63271;53.340;-6.260;2022-12-10T08:33:41;12.80;;;5.60;;
74753;SDS011;63271;53.340;-6.260;2022-12-10T08:36:12;12.07;;;5.32;;
74753;SDS011;63271;53.340;-6.260;2022-12-10T08:38:39;13.15;;;5.63;;
74753;SDS011;63271;53.340;-6.260;2022-12-10T08:41:08;14.93;;;5.15;;
74753;SDS011;63271;53.340;-6.260;2022-12-10T08:43:35;13.00;;;5.85;;
74753;SDS011;63271;53.340;-6.260;2022-12-10T08:46:00;14.95;;;5.72;;
74753;SDS011;63271;53.340;-6.260;2022-12-10T08:48:29;12.32;;;5.55;;
74753;SDS011;63271;53.340;-6.260;2022-12-10T08:50:54;11.15;;;5.20;;
74753;SDS011;63271;53.340;-6.260;2022-12-10T08:53:22;11.68;;;5.50;;
74753;SDS011;63271;53.340;-6.260;2022-12-10T08:55:53;12.63;;;5.78;;
74753;SDS011;63271;53.340;-6.260;2022-12-10T08:58:19;15.32;;;5.88;;
74753;SDS011;63271;53.340;-6.260;2022-12-10T09:00:46;10.45;;;5.07;;
74753;SDS011;63271;53.340;-6.260;2022-12-10T09:03:16;13.93;;;5.88;;
74753;SDS011;63271;53.340;-6.260;2022-12-10T09:05:42;21.27;;;5.78;;
74753;SDS011;63271;53.340;-6.260;2022-12-10T09:08:10;11.18;;;5.20;;
74753;SDS011;63271;53.340;-6.260;2022-12-10T09:10:39;19.63;;;5.68;;
74753;SDS011;63271;53.340;-6.260;2022-12-10T09:13:05;12.13;;;4.65;;
74753;SDS011;63271;53.340;-6.260;2022-12-10T09:15:31;13.77;;;5.45;;
74753;SDS011;63271;53.340;-6.260;2022-12-10T09:17:57;11.60;;;5.30;;
74753;SDS011;63271;53.340;-6.260;2022-12-10T09:20:22;12.35;;;4.75;;
74753;SDS011;63271;53.340;-6.260;2022-12-10T09:22:50;18.17;;;5.93;;
74753;SDS011;63271;53.340;-6.260;2022-12-10T09:25:19;16.75;;;5.20;;
74753;SDS011;63271;53.340;-6.260;2022-12-10T09:27:46;13.18;;;4.72;;
74753;SDS011;63271;53.340;-6.260;2022-12-10T09:30:14;19.58;;;5.10;;
74753;SDS011;63271;53.340;-6.260;2022-12-10T09:32:39;12.00;;;5.43;;
74753;SDS011;63271;53.340;-6.260;2022-12-10T09:35:04;13.48;;;5.28;;
74753;SDS011;63271;53.340;-6.260;2022-12-10T09:37:33;9.25;;;4.32;;
74753;SDS011;63271;53.340;-6.260;2022-12-10T09:39:59;10.38;;;4.68;;
74753;SDS011;63271;53.340;-6.260;2022-12-10T09:43:26;9.90;;;4.85;;
74753;SDS011;63271;53.340;-6.260;2022-12-10T09:45:26;11.13;;;5.38;;
74753;SDS011;63271;53.340;-6.260;2022-12-10T09:53:47;11.90;;;4.97;;
74753;SDS011;63271;53.340;-6.260;2022-12-10T09:56:18;10.60;;;4.20;;
74753;SDS011;63271;53.340;-6.260;2022-12-10T09:58:46;14.05;;;5.00;;
74753;SDS011;63271;53.340;-6.260;2022-12-10T10:01:15;9.73;;;4.95;;
74753;SDS011;63271;53.340;-6.260;2022-12-10T10:03:43;10.10;;;4.70;;
74753;SDS011;63271;53.340;-6.260;2022-12-10T10:06:09;11.73;;;4.75;;
74753;SDS011;63271;53.340;-6.260;2022-12-10T10:08:41;10.73;;;4.93;;
74753;SDS011;63271;53.340;-6.260;2022-12-10T10:11:18;13.57;;;4.50;;
74753;SDS011;63271;53.340;-6.260;2022-12-10T10:13:52;12.63;;;4.78;;
74753;SDS011;63271;53.340;-6.260;2022-12-10T10:16:24;14.23;;;4.90;;
74753;SDS011;63271;53.340;-6.260;2022-12-10T10:18:53;9.27;;;4.68;;
74753;SDS011;63271;53.340;-6.260;2022-12-10T10:21:25;9.88;;;3.97;;
74753;SDS011;63271;53.340;-6.260;2022-12-10T10:23:52;12.63;;;4.68;;
74753;SDS011;63271;53.340;-6.260;2022-12-10T10:26:23;12.48;;;3.80;;
74753;SDS011;63271;53.340;-6.260;2022-12-10T10:28:51;13.43;;;4.15;;
74753;SDS011;63271;53.340;-6.260;2022-12-10T10:33:53;10.35;;;4.25;;
74753;SDS011;63271;53.340;-6.260;2022-12-10T10:36:25;9.38;;;3.88;;
74753;SDS011;63271;53.340;-6.260;2022-12-10T10:38:54;12.65;;;4.63;;
74753;SDS011;63271;53.340;-6.260;2022-12-10T10:41:20;8.57;;;4.32;;
74753;SDS011;63271;53.340;-6.260;2022-12-10T10:43:51;11.02;;;4.25;;
74753;SDS011;63271;53.340;-6.260;2022-12-10T10:46:24;11.52;;;4.88;;
74753;SDS011;63271;53.340;-6.260;2022-12-10T10:48:49;10.65;;;5.05;;
74753;SDS011;63271;53.340;-6.260;2022-12-10T10:59:24;11.07;;;5.20;;
74753;SDS011;63271;53.340;-6.260;2022-12-10T11:02:02;12.80;;;5.63;;
74753;SDS011;63271;53.340;-6.260;2022-12-10T11:09:28;14.38;;;5.53;;
74753;SDS011;63271;53.340;-6.260;2022-12-10T11:12:03;14.15;;;6.15;;
74753;SDS011;63271;53.340;-6.260;2022-12-10T11:14:31;14.45;;;6.07;;
74753;SDS011;63271;53.340;-6.260;2022-12-10T11:17:03;17.60;;;6.53;;
74753;SDS011;63271;53.340;-6.260;2022-12-10T11:20:29;12.60;;;5.72;;
74753;SDS011;63271;53.340;-6.260;2022-12-10T11:22:50;15.88;;;6.80;;
74753;SDS011;63271;53.340;-6.260;2022-12-10T11:25:17;21.35;;;6.63;;
74753;SDS011;63271;53.340;-6.260;2022-12-10T11:27:56;17.15;;;6.78;;
74753;SDS011;63271;53.340;-6.260;2022-12-10T11:30:28;14.50;;;6.78;;
74753;SDS011;63271;53.340;-6.260;2022-12-10T11:57:09;13.82;;;6.07;;
74753;SDS011;63271;53.340;-6.260;2022-12-10T12:08:13;14.05;;;6.22;;
74753;SDS011;63271;53.340;-6.260;2022-12-10T12:16:02;13.20;;;6.65;;
74753;SDS011;63271;53.340;-6.260;2022-12-10T12:21:05;12.48;;;6.43;;
74753;SDS011;63271;53.340;-6.260;2022-12-10T12:23:49;16.20;;;7.45;;
74753;SDS011;63271;53.340;-6.260;2022-12-10T12:26:28;16.63;;;8.30;;
74753;SDS011;63271;53.340;-6.260;2022-12-10T12:31:59;20.23;;;8.68;;
74753;SDS011;63271;53.340;-6.260;2022-12-10T12:34:49;19.48;;;9.18;;
74753;SDS011;63271;53.340;-6.260;2022-12-10T12:37:21;20.60;;;9.30;;
74753;SDS011;63271;53.340;-6.260;2022-12-10T12:40:00;21.52;;;9.63;;
74753;SDS011;63271;53.340;-6.260;2022-12-10T12:49:54;25.97;;;10.73;;
74753;SDS011;63271;53.340;-6.260;2022-12-10T12:54:52;20.73;;;10.40;;
74753;SDS011;63271;53.340;-6.260;2022-12-10T12:57:30;23.08;;;11.00;;
74753;SDS011;63271;53.340;-6.260;2022-12-10T13:00:05;23.92;;;12.40;;
74753;SDS011;63271;53.340;-6.260;2022-12-10T13:05:26;24.75;;;11.77;;
74753;SDS011;63271;53.340;-6.260;2022-12-10T13:08:37;23.33;;;11.45;;
74753;SDS011;63271;53.340;-6.260;2022-12-10T13:11:15;23.65;;;11.23;;
74753;SDS011;63271;53.340;-6.260;2022-12-10T13:13:38;20.92;;;10.63;;
74753;SDS011;63271;53.340;-6.260;2022-12-10T13:17:07;19.80;;;10.63;;
74753;SDS011;63271;53.340;-6.260;2022-12-10T13:27:04;25.40;;;11.20;;
74753;SDS011;63271;53.340;-6.260;2022-12-10T13:43:29;22.83;;;10.60;;
74753;SDS011;63271;53.340;-6.260;2022-12-10T13:49:15;20.80;;;10.88;;
74753;SDS011;63271;53.340;-6.260;2022-12-10T13:54:27;23.42;;;11.90;;
74753;SDS011;63271;53.340;-6.260;2022-12-10T13:57:26;24.02;;;11.63;;
74753;SDS011;63271;53.340;-6.260;2022-12-10T14:00:08;21.83;;;10.73;;
74753;SDS011;63271;53.340;-6.260;2022-12-10T14:08:23;23.35;;;10.95;;
74753;SDS011;63271;53.340;-6.260;2022-12-10T14:10:52;25.60;;;10.98;;
74753;SDS011;63271;53.340;-6.260;2022-12-10T14:13:18;23.27;;;12.27;;
74753;SDS011;63271;53.340;-6.260;2022-12-10T14:15:53;27.60;;;12.00;;
74753;SDS011;63271;53.340;-6.260;2022-12-10T14:18:22;25.50;;;12.43;;
74753;SDS011;63271;53.340;-6.260;2022-12-10T14:20:49;25.40;;;13.02;;
74753;SDS011;63271;53.340;-6.260;2022-12-10T14:23:27;25.23;;;11.55;;
74753;SDS011;63271;53.340;-6.260;2022-12-10T14:26:11;22.63;;;11.00;;
74753;SDS011;63271;53.340;-6.260;2022-12-10T14:28:56;26.13;;;11.88;;
74753;SDS011;63271;53.340;-6.260;2022-12-10T14:31:27;20.42;;;10.23;;
74753;SDS011;63271;53.340;-6.260;2022-12-10T14:33:59;25.75;;;11.15;;
74753;SDS011;63271;53.340;-6.260;2022-12-10T14:36:30;24.83;;;12.30;;
74753;SDS011;63271;53.340;-6.260;2022-12-10T14:39:00;24.17;;;11.60;;
74753;SDS011;63271;53.340;-6.260;2022-12-10T14:41:30;19.02;;;11.57;;
74753;SDS011;63271;53.340;-6.260;2022-12-10T14:44:01;26.02;;;11.13;;
74753;SDS011;63271;53.340;-6.260;2022-12-10T14:46:29;24.08;;;11.35;;
74753;SDS011;63271;53.340;-6.260;2022-12-10T14:48:56;24.55;;;11.20;;
74753;SDS011;63271;53.340;-6.260;2022-12-10T14:51:23;24.08;;;10.95;;
74753;SDS011;63271;53.340;-6.260;2022-12-10T14:53:50;29.17;;;13.77;;
74753;SDS011;63271;53.340;-6.260;2022-12-10T14:56:36;23.08;;;12.20;;
74753;SDS011;63271;53.340;-6.260;2022-12-10T14:59:12;21.00;;;11.43;;
74753;SDS011;63271;53.340;-6.260;2022-12-10T15:01:43;27.60;;;13.75;;
74753;SDS011;63271;53.340;-6.260;2022-12-10T15:04:15;26.00;;;12.88;;
74753;SDS011;63271;53.340;-6.260;2022-12-10T15:06:42;32.88;;;14.20;;
74753;SDS011;63271;53.340;-6.260;2022-12-10T15:09:16;27.23;;;11.90;;
74753;SDS011;63271;53.340;-6.260;2022-12-10T15:11:44;26.58;;;12.48;;
74753;SDS011;63271;53.340;-6.260;2022-12-10T15:14:15;24.00;;;13.10;;
74753;SDS011;63271;53.340;-6.260;2022-12-10T15:16:45;20.40;;;10.43;;
74753;SDS011;63271;53.340;-6.260;2022-12-10T15:19:22;24.10;;;11.18;;
74753;SDS011;63271;53.340;-6.260;2022-12-10T15:21:50;23.25;;;11.05;;
74753;SDS011;63271;53.340;-6.260;2022-12-10T15:24:27;21.98;;;10.27;;
74753;SDS011;63271;53.340;-6.260;2022-12-10T15:27:01;22.35;;;10.85;;
74753;SDS011;63271;53.340;-6.260;2022-12-10T15:29:32;22.77;;;10.80;;
74753;SDS011;63271;53.340;-6.260;2022-12-10T15:32:03;28.70;;;11.43;;
74753;SDS011;63271;53.340;-6.260;2022-12-10T15:34:33;27.33;;;11.95;;
74753;SDS011;63271;53.340;-6.260;2022-12-10T15:37:02;25.77;;;12.98;;
74753;SDS011;63271;53.340;-6.260;2022-12-10T15:39:35;24.88;;;12.07;;
74753;SDS011;63271;53.340;-6.260;2022-12-10T15:42:08;23.20;;;10.10;;
74753;SDS011;63271;53.340;-6.260;2022-12-10T15:44:59;16.52;;;8.50;;
74753;SDS011;63271;53.340;-6.260;2022-12-10T15:47:29;19.73;;;7.82;;
74753;SDS011;63271;53.340;-6.260;2022-12-10T15:49:55;21.90;;;9.38;;
74753;SDS011;63271;53.340;-6.260;2022-12-10T15:52:24;20.40;;;9.23;;
74753;SDS011;63271;53.340;-6.260;2022-12-10T15:54:54;21.85;;;10.45;;
74753;SDS011;63271;53.340;-6.260;2022-12-10T15:57:27;27.00;;;9.90;;
74753;SDS011;63271;53.340;-6.260;2022-12-10T16:02:43;26.45;;;10.02;;
74753;SDS011;63271;53.340;-6.260;2022-12-10T16:07:46;24.85;;;11.77;;
74753;SDS011;63271;53.340;-6.260;2022-12-10T16:10:14;26.33;;;12.32;;
74753;SDS011;63271;53.340;-6.260;2022-12-10T16:13:05;24.38;;;11.10;;
74753;SDS011;63271;53.340;-6.260;2022-12-10T16:15:33;22.80;;;10.60;;
74753;SDS011;63271;53.340;-6.260;2022-12-10T16:18:08;28.77;;;10.70;;
74753;SDS011;63271;53.340;-6.260;2022-12-10T16:20:34;23.55;;;10.35;;
74753;SDS011;63271;53.340;-6.260;2022-12-10T16:22:59;20.50;;;9.65;;
74753;SDS011;63271;53.340;-6.260;2022-12-10T16:25:26;20.95;;;10.23;;
74753;SDS011;63271;53.340;-6.260;2022-12-10T16:27:54;19.25;;;9.65;;
74753;SDS011;63271;53.340;-6.260;2022-12-10T16:30:20;20.48;;;9.20;;
74753;SDS011;63271;53.340;-6.260;2022-12-10T16:32:48;26.55;;;10.48;;
74753;SDS011;63271;53.340;-6.260;2022-12-10T16:35:17;19.42;;;9.85;;
74753;SDS011;63271;53.340;-6.260;2022-12-10T16:37:45;20.98;;;9.55;;
74753;SDS011;63271;53.340;-6.260;2022-12-10T16:40:20;23.55;;;10.45;;
74753;SDS011;63271;53.340;-6.260;2022-12-10T16:42:49;26.88;;;10.48;;
74753;SDS011;63271;53.340;-6.260;2022-12-10T16:45:27;22.30;;;9.65;;
74753;SDS011;63271;53.340;-6.260;2022-12-10T16:47:53;24.23;;;10.15;;
74753;SDS011;63271;53.340;-6.260;2022-12-10T16:50:19;24.65;;;10.32;;
74753;SDS011;63271;53.340;-6.260;2022-12-10T16:52:47;23.88;;;10.95;;
74753;SDS011;63271;53.340;-6.260;2022-12-10T16:55:13;21.27;;;11.07;;
74753;SDS011;63271;53.340;-6.260;2022-12-10T16:57:43;29.55;;;13.00;;
74753;SDS011;63271;53.340;-6.260;2022-12-10T17:00:11;25.38;;;11.60;;
74753;SDS011;63271;53.340;-6.260;2022-12-10T17:02:39;26.33;;;12.18;;
74753;SDS011;63271;53.340;-6.260;2022-12-10T17:05:10;27.67;;;11.32;;
74753;SDS011;63271;53.340;-6.260;2022-12-10T17:07:38;27.92;;;12.82;;
74753;SDS011;63271;53.340;-6.260;2022-12-10T17:10:04;29.63;;;12.25;;
74753;SDS011;63271;53.340;-6.260;2022-12-10T17:12:35;24.77;;;11.82;;
74753;SDS011;63271;53.340;-6.260;2022-12-10T17:15:01;25.40;;;11.95;;
74753;SDS011;63271;53.340;-6.260;2022-12-10T17:17:30;24.42;;;11.88;;
74753;SDS011;63271;53.340;-6.260;2022-12-10T17:19:55;23.48;;;11.70;;
74753;SDS011;63271;53.340;-6.260;2022-12-10T17:22:23;24.80;;;11.27;;
74753;SDS011;63271;53.340;-6.260;2022-12-10T17:24:51;21.38;;;10.13;;
74753;SDS011;63271;53.340;-6.260;2022-12-10T17:27:17;27.30;;;11.73;;
74753;SDS011;63271;53.340;-6.260;2022-12-10T17:29:48;23.35;;;10.88;;
74753;SDS011;63271;53.340;-6.260;2022-12-10T17:32:19;25.30;;;12.38;;
74753;SDS011;63271;53.340;-6.260;2022-12-10T17:34:46;29.42;;;13.30;;
74753;SDS011;63271;53.340;-6.260;2022-12-10T17:37:12;29.20;;;12.80;;
74753;SDS011;63271;53.340;-6.260;2022-12-10T17:39:40;26.83;;;11.52;;
74753;SDS011;63271;53.340;-6.260;2022-12-10T17:42:10;25.80;;;11.45;;
74753;SDS011;63271;53.340;-6.260;2022-12-10T17:44:36;24.15;;;11.93;;
74753;SDS011;63271;53.340;-6.260;2022-12-10T17:47:08;24.50;;;11.50;;
74753;SDS011;63271;53.340;-6.260;2022-12-10T17:49:40;23.77;;;11.52;;
74753;SDS011;63271;53.340;-6.260;2022-12-10T17:52:08;22.90;;;11.88;;
74753;SDS011;63271;53.340;-6.260;2022-12-10T17:54:33;25.90;;;12.35;;
74753;SDS011;63271;53.340;-6.260;2022-12-10T17:56:59;24.70;;;11.20;;
74753;SDS011;63271;53.340;-6.260;2022-12-10T17:59:25;27.17;;;12.68;;
74753;SDS011;63271;53.340;-6.260;2022-12-10T18:01:51;28.73;;;13.65;;
74753;SDS011;63271;53.340;-6.260;2022-12-10T18:04:19;24.98;;;11.48;;
74753;SDS011;63271;53.340;-6.260;2022-12-10T18:06:47;27.00;;;12.20;;
74753;SDS011;63271;53.340;-6.260;2022-12-10T18:09:12;24.95;;;11.52;;
74753;SDS011;63271;53.340;-6.260;2022-12-10T18:11:38;28.85;;;13.30;;
74753;SDS011;63271;53.340;-6.260;2022-12-10T18:14:08;30.20;;;13.38;;
74753;SDS011;63271;53.340;-6.260;2022-12-10T18:16:38;27.60;;;12.80;;
74753;SDS011;63271;53.340;-6.260;2022-12-10T18:19:09;26.52;;;12.50;;
74753;SDS011;63271;53.340;-6.260;2022-12-10T18:21:39;31.08;;;14.32;;
74753;SDS011;63271;53.340;-6.260;2022-12-10T18:24:05;50.67;;;19.52;;
74753;SDS011;63271;53.340;-6.260;2022-12-10T18:26:33;31.88;;;15.77;;
74753;SDS011;63271;53.340;-6.260;2022-12-10T18:28:59;26.77;;;12.77;;
74753;SDS011;63271;53.340;-6.260;2022-12-10T18:31:30;26.00;;;11.93;;
74753;SDS011;63271;53.340;-6.260;2022-12-10T18:34:07;27.13;;;13.18;;
74753;SDS011;63271;53.340;-6.260;2022-12-10T18:36:36;25.45;;;12.30;;
74753;SDS011;63271;53.340;-6.260;2022-12-10T18:39:04;28.98;;;12.85;;
74753;SDS011;63271;53.340;-6.260;2022-12-10T18:41:32;31.23;;;12.88;;
74753;SDS011;63271;53.340;-6.260;2022-12-10T18:44:00;25.42;;;11.82;;
74753;SDS011;63271;53.340;-6.260;2022-12-10T18:46:26;31.70;;;12.80;;
74753;SDS011;63271;53.340;-6.260;2022-12-10T18:48:52;28.88;;;13.23;;
74753;SDS011;63271;53.340;-6.260;2022-12-10T18:51:21;37.90;;;14.60;;
74753;SDS011;63271;53.340;-6.260;2022-12-10T18:53:50;32.10;;;14.23;;
74753;SDS011;63271;53.340;-6.260;2022-12-10T18:56:18;40.70;;;18.00;;
74753;SDS011;63271;53.340;-6.260;2022-12-10T18:58:45;29.50;;;13.63;;
74753;SDS011;63271;53.340;-6.260;2022-12-10T19:01:11;27.92;;;12.30;;
74753;SDS011;63271;53.340;-6.260;2022-12-10T19:03:37;27.98;;;12.70;;
74753;SDS011;63271;53.340;-6.260;2022-12-10T19:06:05;30.15;;;12.90;;
74753;SDS011;63271;53.340;-6.260;2022-12-10T19:08:36;26.33;;;13.60;;
74753;SDS011;63271;53.340;-6.260;2022-12-10T19:11:01;29.95;;;13.65;;
74753;SDS011;63271;53.340;-6.260;2022-12-10T19:13:27;27.10;;;12.27;;
74753;SDS011;63271;53.340;-6.260;2022-12-10T19:15:52;31.98;;;14.45;;
74753;SDS011;63271;53.340;-6.260;2022-12-10T19:18:18;37.88;;;14.43;;
74753;SDS011;63271;53.340;-6.260;2022-12-10T19:20:43;37.33;;;14.43;;
74753;SDS011;63271;53.340;-6.260;2022-12-10T19:23:09;33.92;;;12.88;;
74753;SDS011;63271;53.340;-6.260;2022-12-10T19:25:37;30.48;;;14.55;;
74753;SDS011;63271;53.340;-6.260;2022-12-10T19:28:03;31.10;;;15.25;;
74753;SDS011;63271;53.340;-6.260;2022-12-10T19:30:31;34.47;;;15.52;;
74753;SDS011;63271;53.340;-6.260;2022-12-10T19:32:59;27.30;;;13.65;;
74753;SDS011;63271;53.340;-6.260;2022-12-10T19:35:27;35.53;;;14.95;;
74753;SDS011;63271;53.340;-6.260;2022-12-10T19:37:53;30.40;;;14.82;;
74753;SDS011;63271;53.340;-6.260;2022-12-10T19:40:23;34.97;;;14.82;;
74753;SDS011;63271;53.340;-6.260;2022-12-10T19:42:56;38.15;;;15.75;;
74753;SDS011;63271;53.340;-6.260;2022-12-10T19:45:22;38.67;;;17.63;;
74753;SDS011;63271;53.340;-6.260;2022-12-10T19:47:50;33.13;;;12.90;;
74753;SDS011;63271;53.340;-6.260;2022-12-10T19:50:23;31.88;;;13.10;;
74753;SDS011;63271;53.340;-6.260;2022-12-10T19:52:50;37.63;;;14.10;;
74753;SDS011;63271;53.340;-6.260;2022-12-10T19:55:16;32.78;;;14.77;;
74753;SDS011;63271;53.340;-6.260;2022-12-10T19:57:42;31.30;;;13.75;;
74753;SDS011;63271;53.340;-6.260;2022-12-10T20:00:13;34.90;;;14.48;;
